createdAt,value
2018-07-22T00:01:23.066Z,22.80
2018-07-22T00:03:51.146Z,22.80
2018-07-22T00:06:19.211Z,22.80
2018-07-22T00:08:47.290Z,22.70
2018-07-22T00:11:16.009Z,22.70
2018-07-22T00:13:44.067Z,22.70
2018-07-22T00:16:12.122Z,22.70
2018-07-22T00:18:40.157Z,22.60
2018-07-22T00:21:08.230Z,22.60
2018-07-22T00:23:36.297Z,22.60
2018-07-22T00:26:04.406Z,22.60
2018-07-22T00:28:32.469Z,22.60
2018-07-22T00:31:00.559Z,22.50
2018-07-22T00:33:28.941Z,22.50
2018-07-22T00:35:56.999Z,22.40
2018-07-22T00:38:25.049Z,22.40
2018-07-22T00:40:53.129Z,22.40
2018-07-22T00:43:21.175Z,22.30
2018-07-22T00:45:49.226Z,22.20
2018-07-22T00:48:17.297Z,22.20
2018-07-22T00:50:45.368Z,22.20
2018-07-22T00:53:13.441Z,22.20
2018-07-22T00:55:41.510Z,22.10
2018-07-22T00:58:09.565Z,22.10
2018-07-22T01:00:37.653Z,22.10
2018-07-22T01:03:05.787Z,22.10
2018-07-22T01:05:33.834Z,22.00
2018-07-22T01:08:01.962Z,22.10
2018-07-22T01:10:30.021Z,22.00
2018-07-22T01:12:58.103Z,22.00
2018-07-22T01:15:26.353Z,22.00
2018-07-22T01:17:54.421Z,21.90
2018-07-22T01:20:22.470Z,21.90
2018-07-22T01:22:50.533Z,21.90
2018-07-22T01:25:18.574Z,21.90
2018-07-22T01:27:46.668Z,21.80
2018-07-22T01:30:14.734Z,21.80
2018-07-22T01:32:42.794Z,21.80
2018-07-22T01:37:38.729Z,21.80
2018-07-22T01:40:07.090Z,21.80
2018-07-22T01:42:35.145Z,21.80
2018-07-22T01:45:03.211Z,21.80
2018-07-22T01:47:31.266Z,21.70
2018-07-22T01:49:59.317Z,21.70
2018-07-22T01:52:27.382Z,21.70
2018-07-22T01:54:55.429Z,21.70
2018-07-22T01:57:23.589Z,21.70
2018-07-22T01:59:51.670Z,21.70
2018-07-22T02:02:19.745Z,21.60
2018-07-22T02:04:47.822Z,21.60
2018-07-22T02:07:15.896Z,21.50
2018-07-22T02:09:43.954Z,21.50
2018-07-22T02:12:12.019Z,21.50
2018-07-22T02:14:40.130Z,21.50
2018-07-22T02:17:08.209Z,21.60
2018-07-22T02:19:36.277Z,21.50
2018-07-22T02:24:32.185Z,21.50
2018-07-22T02:27:00.245Z,21.50
2018-07-22T02:29:28.332Z,21.50
2018-07-22T02:31:56.418Z,21.40
2018-07-22T02:34:24.480Z,21.40
2018-07-22T02:36:52.533Z,21.40
2018-07-22T02:39:20.579Z,21.40
2018-07-22T02:41:48.642Z,21.40
2018-07-22T02:44:17.189Z,21.40
2018-07-22T02:46:45.249Z,21.40
2018-07-22T02:49:13.315Z,21.40
2018-07-22T02:51:41.365Z,21.30
2018-07-22T02:54:09.423Z,21.20
2018-07-22T02:56:37.633Z,21.20
2018-07-22T02:59:06.202Z,21.20
2018-07-22T03:01:36.118Z,21.20
2018-07-22T03:06:32.772Z,21.20
2018-07-22T03:09:00.806Z,21.20
2018-07-22T03:11:28.861Z,21.20
2018-07-22T03:13:56.938Z,21.20
2018-07-22T03:16:24.995Z,21.20
2018-07-22T03:18:53.079Z,21.20
2018-07-22T03:21:21.117Z,21.20
2018-07-22T03:23:49.186Z,21.10
2018-07-22T03:26:17.845Z,21.10
2018-07-22T03:28:45.903Z,21.10
2018-07-22T03:31:13.982Z,21.10
2018-07-22T03:33:42.047Z,21.10
2018-07-22T03:36:10.093Z,21.10
2018-07-22T03:41:06.221Z,21.10
2018-07-22T03:43:34.277Z,21.00
2018-07-22T03:46:02.398Z,21.00
2018-07-22T03:48:30.445Z,21.00
2018-07-22T03:50:58.507Z,21.10
2018-07-22T03:53:26.552Z,21.10
2018-07-22T03:55:54.608Z,21.10
2018-07-22T03:58:22.667Z,21.00
2018-07-22T04:00:50.710Z,21.00
2018-07-22T04:03:18.774Z,21.00
2018-07-22T04:05:47.000Z,21.00
2018-07-22T04:08:15.125Z,21.00
2018-07-22T04:10:43.196Z,20.90
2018-07-22T04:13:11.242Z,21.00
2018-07-22T04:15:39.301Z,21.00
2018-07-22T04:18:07.360Z,20.90
2018-07-22T04:20:35.908Z,20.90
2018-07-22T04:23:03.998Z,20.90
2018-07-22T04:25:32.085Z,20.90
2018-07-22T04:28:00.149Z,20.90
2018-07-22T04:30:28.205Z,20.90
2018-07-22T04:32:56.790Z,21.00
2018-07-22T04:35:25.857Z,21.00
2018-07-22T04:37:53.906Z,21.00
2018-07-22T04:40:22.160Z,21.10
2018-07-22T04:42:50.219Z,21.00
2018-07-22T04:45:18.274Z,21.00
2018-07-22T04:47:46.361Z,20.90
2018-07-22T04:50:14.518Z,20.90
2018-07-22T04:52:42.581Z,20.90
2018-07-22T04:55:10.664Z,21.00
2018-07-22T05:00:06.557Z,21.00
2018-07-22T05:02:34.601Z,21.00
2018-07-22T05:05:02.676Z,21.10
2018-07-22T05:07:30.730Z,21.20
2018-07-22T05:09:58.994Z,21.20
2018-07-22T05:12:27.053Z,21.20
2018-07-22T05:14:55.120Z,21.30
2018-07-22T05:17:23.173Z,21.30
2018-07-22T05:19:51.229Z,21.40
2018-07-22T05:22:19.330Z,21.40
2018-07-22T05:24:47.393Z,21.40
2018-07-22T05:29:43.313Z,21.50
2018-07-22T05:32:11.959Z,21.60
2018-07-22T05:34:40.030Z,21.70
2018-07-22T05:37:08.086Z,21.70
2018-07-22T05:39:36.185Z,21.80
2018-07-22T05:42:04.304Z,21.70
2018-07-22T05:44:32.422Z,21.60
2018-07-22T05:47:00.701Z,21.60
2018-07-22T05:49:28.766Z,21.70
2018-07-22T05:51:56.826Z,21.70
2018-07-22T05:54:24.892Z,21.70
2018-07-22T05:56:52.983Z,21.90
2018-07-22T05:59:21.046Z,21.90
2018-07-22T06:01:49.106Z,22.10
2018-07-22T06:04:17.158Z,22.10
2018-07-22T06:06:45.217Z,22.00
2018-07-22T06:09:13.281Z,22.00
2018-07-22T06:11:41.380Z,22.00
2018-07-22T06:16:37.511Z,22.30
2018-07-22T06:19:05.545Z,22.30
2018-07-22T06:21:33.725Z,22.40
2018-07-22T06:24:01.800Z,22.40
2018-07-22T06:26:29.865Z,22.50
2018-07-22T06:28:57.934Z,22.50
2018-07-22T06:33:54.089Z,22.50
2018-07-22T06:36:22.150Z,22.60
2018-07-22T06:38:50.213Z,22.60
2018-07-22T06:41:18.271Z,22.60
2018-07-22T06:43:46.343Z,22.60
2018-07-22T06:46:14.472Z,22.60
2018-07-22T06:48:42.470Z,22.70
2018-07-22T06:51:10.572Z,22.70
2018-07-22T06:53:38.657Z,22.70
2018-07-22T06:56:06.865Z,22.50
2018-07-22T06:58:34.911Z,22.50
2018-07-22T07:01:03.042Z,22.60
2018-07-22T07:03:31.053Z,22.70
2018-07-22T07:05:59.121Z,22.70
2018-07-22T07:08:27.173Z,22.70
2018-07-22T07:10:55.248Z,22.80
2018-07-22T07:13:23.306Z,22.80
2018-07-22T07:15:51.537Z,22.70
2018-07-22T07:18:19.602Z,22.60
2018-07-22T07:20:47.730Z,22.60
2018-07-22T07:23:15.732Z,22.60
2018-07-22T07:25:43.792Z,22.60
2018-07-22T07:28:11.858Z,22.60
2018-07-22T07:30:39.929Z,22.60
2018-07-22T07:33:08.010Z,22.80
2018-07-22T07:35:36.061Z,22.80
2018-07-22T07:38:04.227Z,23.00
2018-07-22T07:40:32.292Z,23.00
2018-07-22T07:43:00.357Z,23.30
2018-07-22T07:45:28.414Z,23.20
2018-07-22T07:47:57.685Z,23.30
2018-07-22T07:50:26.530Z,23.30
2018-07-22T07:52:54.581Z,23.30
2018-07-22T07:55:22.642Z,23.50
2018-07-22T08:00:18.605Z,23.60
2018-07-22T08:02:46.670Z,23.60
2018-07-22T08:05:14.726Z,23.70
2018-07-22T08:07:42.814Z,23.70
2018-07-22T08:12:39.721Z,24.00
2018-07-22T08:15:07.816Z,24.10
2018-07-22T08:17:35.868Z,24.20
2018-07-22T08:22:32.482Z,24.40
2018-07-22T08:25:00.561Z,24.50
2018-07-22T08:27:28.645Z,24.60
2018-07-22T08:29:56.699Z,24.50
2018-07-22T08:32:24.776Z,24.50
2018-07-22T08:34:52.845Z,24.70
2018-07-22T08:39:48.781Z,24.60
2018-07-22T08:42:16.875Z,24.50
2018-07-22T08:44:44.926Z,24.70
2018-07-22T08:47:13.006Z,24.80
2018-07-22T08:52:08.970Z,24.80
2018-07-22T08:54:37.053Z,24.90
2018-07-22T08:57:05.333Z,24.90
2018-07-22T08:59:33.373Z,25.00
2018-07-22T09:02:01.422Z,25.00
2018-07-22T09:04:29.493Z,25.20
2018-07-22T09:06:57.581Z,25.50
2018-07-22T09:09:25.642Z,25.60
2018-07-22T09:11:53.702Z,25.40
2018-07-22T09:14:21.753Z,25.40
2018-07-22T09:16:49.829Z,25.10
2018-07-22T09:19:17.888Z,25.10
2018-07-22T09:21:45.934Z,25.20
2018-07-22T09:24:13.985Z,25.10
2018-07-22T09:26:42.041Z,25.40
2018-07-22T09:29:10.091Z,25.30
2018-07-22T09:31:38.168Z,25.40
2018-07-22T09:34:06.230Z,25.70
2018-07-22T09:36:34.335Z,25.90
2018-07-22T09:39:02.337Z,26.00
2018-07-22T09:41:30.409Z,26.00
2018-07-22T09:43:58.461Z,25.90
2018-07-22T09:46:26.505Z,25.90
2018-07-22T09:48:54.549Z,26.10
2018-07-22T09:51:22.605Z,26.00
2018-07-22T09:53:50.761Z,26.00
2018-07-22T09:56:18.749Z,26.00
2018-07-22T09:58:46.814Z,26.30
2018-07-22T10:01:14.865Z,26.30
2018-07-22T10:03:42.937Z,26.10
2018-07-22T10:06:10.991Z,26.00
2018-07-22T10:08:39.044Z,26.00
2018-07-22T10:11:07.162Z,26.30
2018-07-22T10:13:35.203Z,26.30
2018-07-22T10:16:03.333Z,26.40
2018-07-22T10:18:31.392Z,26.30
2018-07-22T10:20:59.462Z,26.30
2018-07-22T10:23:27.593Z,26.50
2018-07-22T10:25:55.585Z,26.60
2018-07-22T10:28:23.823Z,26.70
2018-07-22T10:30:51.880Z,26.60
2018-07-22T10:33:19.957Z,26.40
2018-07-22T10:35:48.067Z,26.50
2018-07-22T10:38:16.086Z,26.50
2018-07-22T10:40:44.144Z,26.50
2018-07-22T10:43:12.381Z,26.30
2018-07-22T10:45:40.431Z,26.30
2018-07-22T10:48:08.706Z,26.40
2018-07-22T10:50:36.811Z,26.40
2018-07-22T10:53:05.153Z,26.60
2018-07-22T10:55:33.218Z,26.60
2018-07-22T10:58:01.263Z,26.60
2018-07-22T11:00:29.331Z,26.90
2018-07-22T11:02:57.435Z,26.90
2018-07-22T11:05:25.469Z,26.90
2018-07-22T11:07:53.517Z,27.00
2018-07-22T11:10:21.587Z,26.80
2018-07-22T11:12:49.658Z,26.80
2018-07-22T11:15:17.745Z,26.90
2018-07-22T11:17:45.797Z,26.80
2018-07-22T11:20:13.853Z,26.70
2018-07-22T11:22:41.915Z,26.60
2018-07-22T11:25:09.981Z,26.60
2018-07-22T11:27:38.040Z,26.80
2018-07-22T11:30:06.201Z,27.00
2018-07-22T11:32:34.268Z,27.00
2018-07-22T11:35:02.478Z,27.00
2018-07-22T11:37:30.518Z,27.00
2018-07-22T11:39:58.574Z,26.80
2018-07-22T11:42:26.622Z,26.90
2018-07-22T11:44:54.681Z,26.90
2018-07-22T11:47:22.749Z,27.00
2018-07-22T11:49:50.805Z,26.90
2018-07-22T11:52:18.859Z,27.00
2018-07-22T11:54:46.929Z,26.80
2018-07-22T11:57:15.339Z,26.70
2018-07-22T11:59:43.381Z,26.60
2018-07-22T12:02:11.437Z,26.80
2018-07-22T12:04:39.636Z,27.10
2018-07-22T12:07:07.665Z,27.10
2018-07-22T12:09:35.758Z,27.00
2018-07-22T12:14:31.721Z,26.80
2018-07-22T12:16:59.769Z,26.80
2018-07-22T12:19:27.833Z,26.80
2018-07-22T12:21:55.910Z,26.80
2018-07-22T12:24:23.961Z,26.90
2018-07-22T12:26:52.037Z,26.90
2018-07-22T12:29:20.102Z,26.90
2018-07-22T12:31:48.281Z,26.70
2018-07-22T12:34:16.385Z,26.30
2018-07-22T12:36:44.389Z,26.30
2018-07-22T12:39:13.085Z,26.30
2018-07-22T12:41:41.346Z,26.50
2018-07-22T12:44:09.425Z,26.30
2018-07-22T12:46:37.552Z,26.30
2018-07-22T12:49:05.861Z,26.70
2018-07-22T12:51:33.914Z,26.80
2018-07-22T12:54:01.965Z,26.40
2018-07-22T12:56:30.045Z,26.10
2018-07-22T12:58:58.521Z,26.10
2018-07-22T13:01:26.754Z,23.30
2018-07-22T13:03:54.912Z,26.50
2018-07-22T13:06:22.971Z,26.30
2018-07-22T13:08:51.024Z,26.20
2018-07-22T13:11:19.106Z,26.20
2018-07-22T13:13:47.350Z,26.20
2018-07-22T13:16:15.401Z,26.10
2018-07-22T13:18:43.457Z,26.10
2018-07-22T13:21:11.528Z,26.30
2018-07-22T13:23:39.665Z,26.30
2018-07-22T13:26:07.717Z,26.50
2018-07-22T13:28:36.517Z,26.60
2018-07-22T13:31:04.561Z,26.50
2018-07-22T13:33:32.593Z,26.10
2018-07-22T13:36:00.654Z,26.10
2018-07-22T13:38:28.718Z,26.40
2018-07-22T13:40:56.772Z,26.90
2018-07-22T13:43:24.853Z,26.90
2018-07-22T13:45:52.936Z,26.80
2018-07-22T13:48:21.197Z,26.80
2018-07-22T13:50:49.253Z,26.70
2018-07-22T13:53:17.296Z,26.80
2018-07-22T13:55:45.349Z,27.10
2018-07-22T13:58:13.401Z,27.00
2018-07-22T14:00:41.462Z,27.00
2018-07-22T14:03:09.498Z,27.10
2018-07-22T14:05:38.051Z,27.00
2018-07-22T14:08:06.189Z,27.00
2018-07-22T14:10:35.933Z,26.90
2018-07-22T14:13:05.561Z,26.80
2018-07-22T14:15:35.321Z,26.80
2018-07-22T14:18:03.381Z,26.70
2018-07-22T14:20:31.541Z,26.30
2018-07-22T14:22:59.590Z,26.30
2018-07-22T14:25:27.663Z,26.50
2018-07-22T14:27:55.737Z,26.30
2018-07-22T14:30:23.801Z,26.30
2018-07-22T14:32:51.847Z,26.50
2018-07-22T14:35:20.123Z,26.80
2018-07-22T14:37:48.185Z,26.60
2018-07-22T14:40:16.228Z,26.70
2018-07-22T14:42:45.985Z,27.10
2018-07-22T14:45:14.040Z,27.00
2018-07-22T14:50:10.049Z,26.40
2018-07-22T14:52:38.133Z,26.40
2018-07-22T14:55:06.255Z,26.20
2018-07-22T14:57:34.355Z,26.50
2018-07-22T15:00:02.438Z,26.40
2018-07-22T15:04:58.361Z,26.50
2018-07-22T15:07:26.419Z,26.10
2018-07-22T15:09:54.479Z,26.20
2018-07-22T15:12:22.539Z,26.40
2018-07-22T15:14:50.603Z,26.50
2018-07-22T15:17:18.673Z,26.10
2018-07-22T15:19:46.733Z,26.10
2018-07-22T15:24:43.061Z,26.20
2018-07-22T15:27:11.113Z,26.20
2018-07-22T15:29:39.166Z,25.80
2018-07-22T15:32:08.063Z,26.20
2018-07-22T15:34:36.127Z,25.70
2018-07-22T15:37:04.236Z,26.00
2018-07-22T15:39:32.427Z,26.10
2018-07-22T15:42:00.509Z,26.40
2018-07-22T15:44:29.104Z,26.30
2018-07-22T15:46:57.158Z,26.10
2018-07-22T15:49:25.250Z,26.20
2018-07-22T15:51:53.313Z,26.00
2018-07-22T15:54:21.382Z,26.30
2018-07-22T15:56:49.430Z,25.80
2018-07-22T15:59:17.488Z,25.90
2018-07-22T16:01:45.561Z,26.30
2018-07-22T16:06:41.607Z,26.30
2018-07-22T16:11:39.070Z,25.70
2018-07-22T16:14:07.173Z,25.70
2018-07-22T16:16:35.236Z,25.30
2018-07-22T16:19:03.314Z,25.30
2018-07-22T16:21:31.369Z,25.70
2018-07-22T16:23:59.462Z,25.70
2018-07-22T16:26:27.518Z,26.40
2018-07-22T16:28:55.573Z,26.80
2018-07-22T16:31:23.658Z,26.80
2018-07-22T16:33:51.722Z,26.30
2018-07-22T16:36:19.786Z,26.50
2018-07-22T16:38:47.822Z,27.20
2018-07-22T16:41:16.544Z,26.80
2018-07-22T16:43:44.585Z,26.80
2018-07-22T16:46:12.630Z,26.70
2018-07-22T16:48:40.788Z,26.30
2018-07-22T16:51:08.934Z,26.30
2018-07-22T16:53:37.087Z,25.90
2018-07-22T16:56:05.053Z,25.00
2018-07-22T16:58:33.106Z,25.20
2018-07-22T17:03:29.613Z,24.80
2018-07-22T17:05:57.698Z,24.30
2018-07-22T17:08:25.758Z,24.00
2018-07-22T17:10:53.806Z,23.90
2018-07-22T17:13:21.861Z,23.70
2018-07-22T17:15:49.917Z,23.90
2018-07-22T17:18:17.989Z,23.90
2018-07-22T17:20:46.070Z,23.70
2018-07-22T17:23:14.134Z,24.00
2018-07-22T17:25:42.202Z,23.90
2018-07-22T17:28:10.272Z,23.70
2018-07-22T17:30:38.343Z,23.40
2018-07-22T17:33:06.421Z,23.70
2018-07-22T17:41:17.414Z,24.50
2018-07-22T17:43:45.490Z,24.50
2018-07-22T17:48:41.565Z,23.80
2018-07-22T17:51:09.737Z,23.30
2018-07-22T17:53:37.693Z,23.30
2018-07-22T17:56:05.863Z,23.20
2018-07-22T18:03:31.187Z,22.70
2018-07-22T18:05:59.584Z,22.90
2018-07-22T18:08:27.650Z,23.00
2018-07-22T18:10:56.113Z,23.00
2018-07-22T18:13:24.201Z,23.20
2018-07-22T18:15:52.281Z,23.30
2018-07-22T18:20:48.906Z,22.80
2018-07-22T18:25:45.750Z,22.90
2018-07-22T18:28:14.340Z,22.90
2018-07-22T18:30:42.626Z,22.40
2018-07-22T18:33:10.707Z,22.40
2018-07-22T18:35:38.815Z,22.30
2018-07-22T18:38:07.378Z,22.40
2018-07-22T18:43:03.461Z,22.10
2018-07-22T18:45:32.579Z,22.20
2018-07-22T18:50:28.565Z,22.30
2018-07-22T18:52:56.601Z,24.60
2018-07-22T18:55:24.662Z,22.20
2018-07-22T18:57:52.700Z,22.30
2018-07-22T19:00:20.762Z,21.90
2018-07-22T19:02:48.825Z,21.80
2018-07-22T19:05:16.898Z,21.60
2018-07-22T19:07:44.944Z,21.50
2018-07-22T19:10:13.019Z,21.30
2018-07-22T19:12:41.073Z,21.40
2018-07-22T19:20:05.344Z,21.40
2018-07-22T19:22:33.404Z,21.50
2018-07-22T19:25:01.486Z,21.40
2018-07-22T19:32:25.269Z,21.50
2018-07-22T19:34:53.356Z,21.40
2018-07-22T19:37:21.436Z,21.40
2018-07-22T19:39:49.705Z,21.30
2018-07-22T19:42:17.785Z,21.30
2018-07-22T19:44:45.890Z,21.20
2018-07-22T19:47:14.350Z,21.20
2018-07-22T19:49:42.569Z,21.30
2018-07-22T19:52:10.629Z,21.30
2018-07-22T19:54:38.709Z,21.20
2018-07-22T19:57:06.794Z,21.10
2018-07-22T19:59:34.846Z,21.10
2018-07-22T20:02:02.905Z,21.20
2018-07-22T20:04:30.965Z,21.20
2018-07-22T20:06:59.245Z,21.00
2018-07-22T20:11:55.069Z,20.80
2018-07-22T20:16:51.278Z,20.60
2018-07-22T20:19:19.341Z,20.70
2018-07-22T20:21:47.394Z,20.70
2018-07-22T20:24:15.571Z,20.70
2018-07-22T20:26:43.534Z,20.70
2018-07-22T20:29:11.582Z,20.70
2018-07-22T20:31:39.712Z,20.70
2018-07-22T20:34:07.755Z,20.80
2018-07-22T20:36:35.821Z,20.80
2018-07-22T20:39:06.485Z,20.70
2018-07-22T20:41:35.200Z,20.80
2018-07-22T20:44:03.233Z,20.80
2018-07-22T20:46:31.284Z,20.80
2018-07-22T20:48:59.334Z,20.80
2018-07-22T20:51:27.473Z,20.80
2018-07-22T20:53:55.481Z,20.70
2018-07-22T20:56:23.619Z,20.60
2018-07-22T20:58:51.639Z,20.50
2018-07-22T21:01:19.684Z,20.60
2018-07-22T21:03:47.757Z,20.50
2018-07-22T21:06:16.893Z,20.50
2018-07-22T21:08:45.174Z,20.40
2018-07-22T21:13:41.126Z,20.50
2018-07-22T21:16:09.214Z,20.40
2018-07-22T21:21:05.420Z,20.40
2018-07-22T21:23:33.497Z,20.30
2018-07-22T21:30:58.009Z,20.20
2018-07-22T21:33:26.056Z,20.00
2018-07-22T21:35:54.114Z,20.10
2018-07-22T21:38:22.186Z,20.00
2018-07-22T21:40:50.241Z,20.10
2018-07-22T21:50:41.869Z,19.80
2018-07-22T21:53:09.950Z,19.90
2018-07-22T21:55:38.001Z,19.70
2018-07-22T21:58:06.069Z,19.70
2018-07-22T22:00:39.730Z,19.60
2018-07-22T22:03:07.810Z,19.60
2018-07-22T22:05:35.879Z,19.60
2018-07-22T22:08:03.918Z,19.60
2018-07-22T22:10:32.021Z,19.60
2018-07-22T22:13:00.081Z,19.60
2018-07-22T22:15:29.141Z,19.40
2018-07-22T22:17:58.393Z,19.40
2018-07-22T22:20:26.922Z,19.30
2018-07-22T22:22:55.097Z,19.30
2018-07-22T22:25:23.149Z,19.20
2018-07-22T22:27:51.213Z,19.20
2018-07-22T22:30:19.249Z,19.20
2018-07-22T22:35:15.645Z,19.10
2018-07-22T22:37:44.229Z,19.10
2018-07-22T22:40:13.117Z,19.10
2018-07-22T22:42:42.534Z,19.10
2018-07-22T22:45:10.593Z,19.10
2018-07-22T22:47:38.649Z,19.10
2018-07-22T22:50:06.789Z,19.10
2018-07-22T22:52:34.842Z,19.10
2018-07-22T22:55:02.889Z,19.00
2018-07-22T22:57:30.938Z,19.00
2018-07-22T22:59:59.014Z,19.00
2018-07-22T23:02:32.445Z,18.90
2018-07-22T23:05:00.502Z,18.80
2018-07-22T23:07:28.561Z,18.80
2018-07-22T23:09:56.595Z,18.90
2018-07-22T23:12:24.649Z,18.90
2018-07-22T23:14:52.694Z,19.00
2018-07-22T23:17:20.754Z,18.90
2018-07-22T23:19:48.797Z,18.80
2018-07-22T23:22:17.075Z,18.70
2018-07-22T23:24:45.301Z,18.80
2018-07-22T23:27:13.381Z,18.90
2018-07-22T23:29:41.425Z,19.00
2018-07-22T23:32:10.373Z,18.80
2018-07-22T23:34:38.482Z,18.90
2018-07-22T23:37:06.577Z,18.80
2018-07-22T23:39:34.628Z,18.80
2018-07-22T23:42:02.692Z,18.80
2018-07-22T23:44:30.733Z,18.80
2018-07-22T23:46:58.789Z,18.60
2018-07-22T23:49:26.845Z,18.60
2018-07-22T23:51:54.893Z,18.60
2018-07-22T23:54:23.078Z,18.50
2018-07-22T23:56:51.278Z,18.50
2018-07-22T23:59:19.378Z,18.60
